createdAt,value
2017-09-27T00:00:00.922Z,46.40
2017-09-27T00:02:30.104Z,53.20
2017-09-27T00:04:58.475Z,49.97
2017-09-27T00:07:26.890Z,42.80
2017-09-27T00:09:55.282Z,49.43
2017-09-27T00:12:23.667Z,41.50
2017-09-27T00:14:52.736Z,47.40
2017-09-27T00:17:21.924Z,52.03
2017-09-27T00:19:50.563Z,47.73
2017-09-27T00:22:19.069Z,54.63
2017-09-27T00:24:47.488Z,48.30
2017-09-27T00:27:15.865Z,51.77
2017-09-27T00:29:44.324Z,43.77
2017-09-27T00:32:12.744Z,41.20
2017-09-27T00:34:41.154Z,44.20
2017-09-27T00:37:10.776Z,46.23
2017-09-27T00:39:39.144Z,47.70
2017-09-27T00:42:07.543Z,46.00
2017-09-27T00:44:36.081Z,48.57
2017-09-27T00:47:04.473Z,54.00
2017-09-27T00:49:32.856Z,57.10
2017-09-27T00:52:01.454Z,56.27
2017-09-27T00:54:29.857Z,46.53
2017-09-27T00:56:59.041Z,56.43
2017-09-27T00:59:27.649Z,51.57
2017-09-27T01:01:57.424Z,44.03
2017-09-27T01:04:25.792Z,49.77
2017-09-27T01:06:54.213Z,45.20
2017-09-27T01:09:23.365Z,46.73
2017-09-27T01:11:51.764Z,47.40
2017-09-27T01:14:20.176Z,47.07
2017-09-27T01:16:49.378Z,42.20
2017-09-27T01:19:18.556Z,51.47
2017-09-27T01:21:47.993Z,43.20
2017-09-27T01:24:16.410Z,66.63
2017-09-27T01:26:44.813Z,54.80
2017-09-27T01:29:13.642Z,47.40
2017-09-27T01:31:42.021Z,51.93
2017-09-27T01:34:10.467Z,55.77
2017-09-27T01:36:39.234Z,46.57
2017-09-27T01:39:07.631Z,43.77
2017-09-27T01:41:36.049Z,55.53
2017-09-27T01:44:04.667Z,48.13
2017-09-27T01:46:33.336Z,58.93
2017-09-27T01:49:01.748Z,50.30
2017-09-27T01:51:30.313Z,47.33
2017-09-27T01:53:58.757Z,50.93
2017-09-27T01:56:27.158Z,56.13
2017-09-27T01:58:55.656Z,54.30
2017-09-27T02:01:24.116Z,61.03
2017-09-27T02:03:53.778Z,51.30
2017-09-27T02:06:22.983Z,55.40
2017-09-27T02:08:51.377Z,59.90
2017-09-27T02:11:19.739Z,66.73
2017-09-27T02:13:49.073Z,60.80
2017-09-27T02:16:17.459Z,60.17
2017-09-27T02:18:45.812Z,56.57
2017-09-27T02:21:15.034Z,57.60
2017-09-27T02:23:43.725Z,61.67
2017-09-27T02:26:12.133Z,60.33
2017-09-27T02:28:40.907Z,64.07
2017-09-27T02:31:09.262Z,54.77
2017-09-27T02:33:37.626Z,53.13
2017-09-27T02:36:06.188Z,65.40
2017-09-27T02:38:35.303Z,62.70
2017-09-27T02:41:03.672Z,60.43
2017-09-27T02:43:32.294Z,51.60
2017-09-27T02:46:00.674Z,58.03
2017-09-27T02:48:29.074Z,61.83
2017-09-27T02:50:57.482Z,55.63
2017-09-27T02:53:26.628Z,64.17
2017-09-27T02:55:54.979Z,65.40
2017-09-27T02:58:23.409Z,60.53
2017-09-27T03:00:52.708Z,58.80
2017-09-27T03:03:21.110Z,64.60
2017-09-27T03:05:50.790Z,62.50
2017-09-27T03:08:19.161Z,61.47
2017-09-27T03:10:47.525Z,72.83
2017-09-27T03:13:16.023Z,68.10
2017-09-27T03:15:44.407Z,74.23
2017-09-27T03:18:12.817Z,61.53
2017-09-27T03:20:42.358Z,67.63
2017-09-27T03:23:11.504Z,62.83
2017-09-27T03:25:40.309Z,56.70
2017-09-27T03:28:09.493Z,57.13
2017-09-27T03:30:37.853Z,74.90
2017-09-27T03:33:06.220Z,59.87
2017-09-27T03:35:34.697Z,59.27
2017-09-27T03:38:04.441Z,56.17
2017-09-27T03:40:32.852Z,52.73
2017-09-27T03:43:01.252Z,54.17
2017-09-27T03:45:29.612Z,56.50
2017-09-27T03:47:57.992Z,58.80
2017-09-27T03:50:26.684Z,53.67
2017-09-27T03:52:55.064Z,60.73
2017-09-27T03:55:23.418Z,39.43
2017-09-27T03:57:52.694Z,60.93
2017-09-27T04:00:21.064Z,59.43
2017-09-27T04:02:49.456Z,59.87
2017-09-27T04:05:18.195Z,64.70
2017-09-27T04:07:46.753Z,55.73
2017-09-27T04:10:15.880Z,56.90
2017-09-27T04:12:44.284Z,53.57
2017-09-27T04:15:12.831Z,54.97
2017-09-27T04:17:41.197Z,50.10
2017-09-27T04:20:09.763Z,52.70
2017-09-27T04:22:38.928Z,55.00
2017-09-27T04:25:07.311Z,53.37
2017-09-27T04:27:36.293Z,50.73
2017-09-27T04:30:04.713Z,57.47
2017-09-27T04:32:33.884Z,56.40
2017-09-27T04:35:02.390Z,47.33
2017-09-27T04:37:31.559Z,50.50
2017-09-27T04:40:01.912Z,50.10
2017-09-27T04:42:30.368Z,56.07
2017-09-27T04:44:58.788Z,53.93
2017-09-27T04:47:27.184Z,48.30
2017-09-27T04:49:55.927Z,48.57
2017-09-27T04:52:25.236Z,46.60
2017-09-27T04:54:54.347Z,54.93
2017-09-27T04:57:22.953Z,56.90
2017-09-27T04:59:51.328Z,50.77
2017-09-27T05:02:19.735Z,57.63
2017-09-27T05:04:48.421Z,57.77
2017-09-27T05:07:16.822Z,47.60
2017-09-27T05:09:45.567Z,48.50
2017-09-27T05:12:14.092Z,42.43
2017-09-27T05:14:43.317Z,51.23
2017-09-27T05:17:12.463Z,52.70
2017-09-27T05:19:41.175Z,53.47
2017-09-27T05:22:09.579Z,46.37
2017-09-27T05:24:37.967Z,46.87
2017-09-27T05:27:06.541Z,49.13
2017-09-27T05:29:35.176Z,48.10
2017-09-27T05:32:03.810Z,45.67
2017-09-27T05:34:32.230Z,45.00
2017-09-27T05:37:01.366Z,45.57
2017-09-27T05:39:29.742Z,41.83
2017-09-27T05:41:58.247Z,43.20
2017-09-27T05:44:26.630Z,50.70
2017-09-27T05:46:55.002Z,42.23
2017-09-27T05:49:25.051Z,42.83
2017-09-27T05:51:53.494Z,45.40
2017-09-27T05:54:23.062Z,42.03
2017-09-27T05:56:51.649Z,50.63
2017-09-27T05:59:20.076Z,45.17
2017-09-27T06:01:48.464Z,44.50
2017-09-27T06:04:16.893Z,49.73
2017-09-27T06:06:45.367Z,42.77
2017-09-27T06:09:13.743Z,40.93
2017-09-27T06:11:42.445Z,41.63
2017-09-27T06:14:10.943Z,39.90
2017-09-27T06:16:39.398Z,40.97
2017-09-27T06:19:07.830Z,47.20
2017-09-27T06:21:36.219Z,44.07
2017-09-27T06:24:04.619Z,37.37
2017-09-27T06:26:33.255Z,47.07
2017-09-27T06:29:01.628Z,42.20
2017-09-27T06:31:30.909Z,35.73
2017-09-27T06:33:59.429Z,46.17
2017-09-27T06:36:27.849Z,52.00
2017-09-27T06:38:56.236Z,43.40
2017-09-27T06:41:24.640Z,54.50
2017-09-27T06:43:53.069Z,47.40
2017-09-27T06:46:22.323Z,47.10
2017-09-27T06:48:51.687Z,46.80
2017-09-27T06:51:20.083Z,45.23
2017-09-27T06:53:48.583Z,40.80
2017-09-27T06:56:17.147Z,47.10
2017-09-27T06:58:45.579Z,37.13
2017-09-27T07:01:13.972Z,53.13
2017-09-27T07:03:43.047Z,44.17
2017-09-27T07:06:12.335Z,44.83
2017-09-27T07:08:41.575Z,44.57
2017-09-27T07:11:10.237Z,37.30
2017-09-27T07:13:39.032Z,37.30
2017-09-27T07:16:08.230Z,38.17
2017-09-27T07:18:36.997Z,39.70
2017-09-27T07:21:06.225Z,36.80
2017-09-27T07:23:34.669Z,41.97
2017-09-27T07:26:03.876Z,34.67
2017-09-27T07:28:32.456Z,38.43
2017-09-27T07:31:00.888Z,34.83
2017-09-27T07:33:29.582Z,37.83
2017-09-27T07:35:58.797Z,33.63
2017-09-27T07:38:28.050Z,31.83
2017-09-27T07:40:56.893Z,34.30
2017-09-27T07:43:26.821Z,29.00
2017-09-27T07:45:55.295Z,32.10
2017-09-27T07:48:23.909Z,34.70
2017-09-27T07:50:52.341Z,30.87
2017-09-27T07:53:20.774Z,33.03
2017-09-27T07:55:49.371Z,33.03
2017-09-27T07:58:18.754Z,35.70
2017-09-27T08:00:47.184Z,36.73
2017-09-27T08:03:15.717Z,37.53
2017-09-27T08:05:44.887Z,42.63
2017-09-27T08:08:15.323Z,38.00
2017-09-27T08:10:43.832Z,45.50
2017-09-27T08:13:13.089Z,42.37
2017-09-27T08:15:42.639Z,37.50
2017-09-27T08:18:11.188Z,35.90
2017-09-27T08:20:41.376Z,39.10
2017-09-27T08:23:14.585Z,45.30
2017-09-27T08:25:43.944Z,40.03
2017-09-27T08:28:13.201Z,34.97
2017-09-27T08:30:41.822Z,42.33
2017-09-27T08:33:11.387Z,56.53
2017-09-27T08:35:39.856Z,40.80
2017-09-27T08:38:08.666Z,38.90
2017-09-27T08:40:37.096Z,33.77
2017-09-27T08:43:05.586Z,35.63
2017-09-27T08:45:35.353Z,33.77
2017-09-27T08:48:04.227Z,30.63
2017-09-27T08:50:33.529Z,32.70
2017-09-27T08:53:01.968Z,34.67
2017-09-27T08:55:30.442Z,40.80
2017-09-27T08:57:59.023Z,35.67
2017-09-27T09:00:28.555Z,29.43
2017-09-27T09:02:57.717Z,32.67
2017-09-27T09:05:29.955Z,34.23
2017-09-27T09:07:58.387Z,30.47
2017-09-27T09:10:27.721Z,30.13
2017-09-27T09:12:57.638Z,37.90
2017-09-27T09:15:27.149Z,30.20
2017-09-27T09:17:56.603Z,31.30
2017-09-27T09:20:25.491Z,29.87
2017-09-27T09:22:54.083Z,31.93
2017-09-27T09:25:23.274Z,29.33
2017-09-27T09:27:51.992Z,28.30
2017-09-27T09:30:22.044Z,31.20
2017-09-27T09:32:51.552Z,30.90
2017-09-27T09:35:20.267Z,31.40
2017-09-27T09:37:48.757Z,29.80
2017-09-27T09:40:17.214Z,27.67
2017-09-27T09:42:45.848Z,28.10
2017-09-27T09:45:15.200Z,32.37
2017-09-27T09:47:44.573Z,25.30
2017-09-27T09:50:13.035Z,32.80
2017-09-27T09:52:42.235Z,27.87
2017-09-27T09:55:10.664Z,25.47
2017-09-27T09:57:39.073Z,30.90
2017-09-27T10:00:07.620Z,29.60
2017-09-27T10:02:36.831Z,26.50
2017-09-27T10:05:05.403Z,24.77
2017-09-27T10:07:33.770Z,31.73
2017-09-27T10:10:02.206Z,25.47
2017-09-27T10:12:32.975Z,27.70
2017-09-27T10:15:01.376Z,25.70
2017-09-27T10:17:30.157Z,26.30
2017-09-27T10:19:59.849Z,23.27
2017-09-27T10:22:28.313Z,26.43
2017-09-27T10:24:56.743Z,29.90
2017-09-27T10:27:26.614Z,21.53
2017-09-27T10:29:55.764Z,25.63
2017-09-27T10:32:24.975Z,25.30
2017-09-27T10:34:54.183Z,27.30
2017-09-27T10:37:23.585Z,23.03
2017-09-27T10:39:52.727Z,23.50
2017-09-27T10:42:23.831Z,23.23
2017-09-27T10:44:52.450Z,23.97
2017-09-27T10:47:20.873Z,21.83
2017-09-27T10:49:49.410Z,23.03
2017-09-27T10:52:18.926Z,20.97
2017-09-27T10:54:48.560Z,19.87
2017-09-27T10:57:17.377Z,22.87
2017-09-27T10:59:45.848Z,26.70
2017-09-27T11:02:16.738Z,23.00
2017-09-27T11:04:45.244Z,25.40
2017-09-27T11:07:15.788Z,22.77
2017-09-27T11:09:44.187Z,24.73
2017-09-27T11:12:15.042Z,23.10
2017-09-27T11:14:43.679Z,22.10
2017-09-27T11:17:13.906Z,25.97
2017-09-27T11:19:42.423Z,32.50
2017-09-27T11:22:11.720Z,21.63
2017-09-27T11:24:41.113Z,26.40
2017-09-27T11:27:11.492Z,22.07
2017-09-27T11:29:39.872Z,21.77
2017-09-27T11:32:09.166Z,21.20
2017-09-27T11:34:37.928Z,25.70
2017-09-27T11:37:07.782Z,19.70
2017-09-27T11:39:36.419Z,19.33
2017-09-27T11:42:04.857Z,11.30
2017-09-27T11:44:36.001Z,10.70
2017-09-27T11:47:04.430Z,13.37
2017-09-27T11:49:33.785Z,13.70
2017-09-27T11:52:02.283Z,14.93
2017-09-27T11:54:30.703Z,16.20
2017-09-27T11:57:03.031Z,14.97
2017-09-27T11:59:32.326Z,12.13
2017-09-27T12:02:02.674Z,8.90
2017-09-27T12:04:31.304Z,13.03
2017-09-27T12:06:59.718Z,18.30
2017-09-27T12:09:28.611Z,12.53
2017-09-27T12:11:57.773Z,11.97
2017-09-27T12:14:28.489Z,13.17
2017-09-27T12:16:57.138Z,14.90
2017-09-27T12:19:26.531Z,16.47
2017-09-27T12:21:55.679Z,10.53
2017-09-27T12:24:24.402Z,10.90
2017-09-27T12:26:52.813Z,13.13
2017-09-27T12:29:22.219Z,13.50
2017-09-27T12:31:51.619Z,11.60
2017-09-27T12:34:20.760Z,12.70
2017-09-27T12:36:49.166Z,14.23
2017-09-27T12:39:19.623Z,14.87
2017-09-27T12:41:48.094Z,10.77
2017-09-27T12:44:19.516Z,20.77
2017-09-27T12:46:48.076Z,12.20
2017-09-27T12:49:16.477Z,14.87
2017-09-27T12:51:45.627Z,13.87
2017-09-27T12:54:14.218Z,16.60
2017-09-27T12:56:42.619Z,15.20
2017-09-27T12:59:11.189Z,13.33
2017-09-27T13:01:39.648Z,12.73
2017-09-27T13:04:09.702Z,13.13
2017-09-27T13:06:38.231Z,14.40
2017-09-27T13:09:06.819Z,14.53
2017-09-27T13:11:35.558Z,17.07
2017-09-27T13:14:04.102Z,13.20
2017-09-27T13:16:32.767Z,14.10
2017-09-27T13:19:01.543Z,11.00
2017-09-27T13:21:30.692Z,17.63
2017-09-27T13:23:59.882Z,17.73
2017-09-27T13:26:29.745Z,21.63
2017-09-27T13:28:59.052Z,15.13
2017-09-27T13:31:28.422Z,16.87
2017-09-27T13:33:57.429Z,19.63
2017-09-27T13:36:25.819Z,17.33
2017-09-27T13:38:56.264Z,15.10
2017-09-27T13:41:24.741Z,19.47
2017-09-27T13:43:53.482Z,25.13
2017-09-27T13:46:23.052Z,18.60
2017-09-27T13:48:51.513Z,15.83
2017-09-27T13:51:21.376Z,25.00
2017-09-27T13:53:49.981Z,15.70
2017-09-27T13:56:19.121Z,20.70
2017-09-27T13:58:48.041Z,17.63
2017-09-27T14:01:18.004Z,17.47
2017-09-27T14:03:47.272Z,17.27
2017-09-27T14:06:15.639Z,15.73
2017-09-27T14:08:45.039Z,19.13
2017-09-27T14:11:14.383Z,18.20
2017-09-27T14:13:44.665Z,21.60
2017-09-27T14:16:13.271Z,16.07
2017-09-27T14:18:42.037Z,20.30
2017-09-27T14:21:10.505Z,28.27
2017-09-27T14:23:38.943Z,17.80
2017-09-27T14:26:08.135Z,17.43
2017-09-27T14:28:37.432Z,15.73
2017-09-27T14:31:06.703Z,23.40
2017-09-27T14:33:35.141Z,15.93
2017-09-27T14:36:03.570Z,19.30
2017-09-27T14:38:32.309Z,17.87
2017-09-27T14:41:00.715Z,17.07
2017-09-27T14:43:31.477Z,16.07
2017-09-27T14:46:00.260Z,19.17
2017-09-27T14:48:28.674Z,17.73
2017-09-27T14:50:57.245Z,26.43
2017-09-27T14:53:27.775Z,20.03
2017-09-27T14:55:56.386Z,18.00
2017-09-27T14:58:26.018Z,15.23
2017-09-27T15:00:55.554Z,16.37
2017-09-27T15:03:24.102Z,17.03
2017-09-27T15:05:52.523Z,21.63
2017-09-27T15:08:21.661Z,15.10
2017-09-27T15:10:51.989Z,24.13
2017-09-27T15:13:21.270Z,18.50
2017-09-27T15:15:49.720Z,16.20
2017-09-27T15:18:18.203Z,19.53
2017-09-27T15:20:47.086Z,13.83
2017-09-27T15:23:16.619Z,18.33
2017-09-27T15:25:45.728Z,20.07
2017-09-27T15:28:15.132Z,13.67
2017-09-27T15:30:43.796Z,14.03
2017-09-27T15:33:13.020Z,14.47
2017-09-27T15:35:41.543Z,17.83
2017-09-27T15:38:10.075Z,19.63
2017-09-27T15:40:38.944Z,17.13
2017-09-27T15:43:08.641Z,20.07
2017-09-27T15:45:38.220Z,16.73
2017-09-27T15:48:06.960Z,16.43
2017-09-27T15:50:36.147Z,15.77
2017-09-27T15:53:05.436Z,17.00
2017-09-27T15:55:33.983Z,16.03
2017-09-27T15:58:02.488Z,14.60
2017-09-27T16:00:31.764Z,19.57
2017-09-27T16:03:00.226Z,16.80
2017-09-27T16:05:30.226Z,13.03
2017-09-27T16:07:59.287Z,16.93
2017-09-27T16:10:27.765Z,15.50
2017-09-27T16:12:56.504Z,14.87
2017-09-27T16:15:25.032Z,20.20
2017-09-27T16:17:53.433Z,17.63
2017-09-27T16:20:21.919Z,16.57
2017-09-27T16:22:51.399Z,24.30
2017-09-27T16:25:20.631Z,25.53
2017-09-27T16:27:49.011Z,20.83
2017-09-27T16:30:17.475Z,28.00
2017-09-27T16:32:46.760Z,24.37
2017-09-27T16:35:15.188Z,25.43
2017-09-27T16:37:43.855Z,27.93
2017-09-27T16:40:13.315Z,35.93
2017-09-27T16:42:41.716Z,26.43
2017-09-27T16:45:11.307Z,26.70
2017-09-27T16:47:39.724Z,22.90
2017-09-27T16:50:08.314Z,28.87
2017-09-27T16:52:36.796Z,29.93
2017-09-27T16:55:06.513Z,32.87
2017-09-27T16:57:35.494Z,28.77
2017-09-27T17:00:06.131Z,35.80
2017-09-27T17:02:34.591Z,32.40
2017-09-27T17:05:03.914Z,31.37
2017-09-27T17:07:33.830Z,35.93
2017-09-27T17:10:02.266Z,32.03
2017-09-27T17:12:30.735Z,39.20
2017-09-27T17:14:59.401Z,28.70
2017-09-27T17:17:27.825Z,31.20
2017-09-27T17:19:56.285Z,27.80
2017-09-27T17:22:24.987Z,31.43
2017-09-27T17:24:54.166Z,25.93
2017-09-27T17:27:22.577Z,27.37
2017-09-27T17:29:54.414Z,26.80
2017-09-27T17:32:23.531Z,28.20
2017-09-27T17:34:53.190Z,27.63
2017-09-27T17:37:22.557Z,28.10
2017-09-27T17:39:51.007Z,26.80
2017-09-27T17:42:19.459Z,30.00
2017-09-27T17:44:47.886Z,27.37
2017-09-27T17:47:17.058Z,28.23
2017-09-27T17:49:45.541Z,29.80
2017-09-27T17:52:15.991Z,28.30
2017-09-27T17:54:45.707Z,25.53
2017-09-27T17:57:14.119Z,32.63
2017-09-27T17:59:42.682Z,38.60
2017-09-27T18:02:12.915Z,33.97
2017-09-27T18:04:44.635Z,32.10
2017-09-27T18:10:23.326Z,32.30
2017-09-27T18:12:57.427Z,32.57
2017-09-27T18:15:31.751Z,34.90
2017-09-27T18:18:21.804Z,29.40
2017-09-27T18:20:50.639Z,32.60
2017-09-27T18:23:20.107Z,34.17
2017-09-27T18:25:48.677Z,36.33
2017-09-27T18:28:17.758Z,33.83
2017-09-27T18:30:48.591Z,34.10
2017-09-27T18:33:18.913Z,33.57
2017-09-27T18:35:48.269Z,34.50
2017-09-27T18:38:18.919Z,38.80
2017-09-27T18:40:49.000Z,36.27
2017-09-27T18:43:18.771Z,39.50
2017-09-27T18:45:47.168Z,39.03
2017-09-27T18:48:16.310Z,39.00
2017-09-27T18:50:45.338Z,40.97
2017-09-27T18:53:13.821Z,35.83
2017-09-27T18:55:42.868Z,40.03
2017-09-27T18:58:12.097Z,40.57
2017-09-27T19:00:40.689Z,37.00
2017-09-27T19:03:09.355Z,44.00
2017-09-27T19:05:37.927Z,42.10
2017-09-27T19:08:06.341Z,35.70
2017-09-27T19:10:34.728Z,43.23
2017-09-27T19:13:03.217Z,39.67
2017-09-27T19:15:31.678Z,46.60
2017-09-27T19:18:00.076Z,46.43
2017-09-27T19:20:29.354Z,41.60
2017-09-27T19:22:57.798Z,46.00
2017-09-27T19:25:26.155Z,41.00
2017-09-27T19:27:54.862Z,34.80
2017-09-27T19:30:23.256Z,43.13
2017-09-27T19:32:51.737Z,39.80
2017-09-27T19:35:20.201Z,41.30
2017-09-27T19:37:48.642Z,59.47
2017-09-27T19:40:17.103Z,43.70
2017-09-27T19:42:45.713Z,43.23
2017-09-27T19:45:14.925Z,43.13
2017-09-27T19:47:44.237Z,44.07
2017-09-27T19:50:12.969Z,39.60
2017-09-27T19:52:41.735Z,43.07
2017-09-27T19:55:10.154Z,48.07
2017-09-27T19:57:38.716Z,60.30
2017-09-27T20:00:07.179Z,44.17
2017-09-27T20:02:35.591Z,51.10
2017-09-27T20:05:05.350Z,51.37
2017-09-27T20:07:33.728Z,49.60
2017-09-27T20:10:02.150Z,48.00
2017-09-27T20:12:30.553Z,50.30
2017-09-27T20:15:00.796Z,49.57
2017-09-27T20:17:29.550Z,44.20
2017-09-27T20:19:58.888Z,51.07
2017-09-27T20:22:27.280Z,44.63
2017-09-27T20:24:55.662Z,51.00
2017-09-27T20:27:25.674Z,51.00
2017-09-27T20:29:57.984Z,52.57
2017-09-27T20:32:29.741Z,55.43
2017-09-27T20:34:59.162Z,48.77
2017-09-27T20:37:28.374Z,55.30
2017-09-27T20:39:58.080Z,50.77
2017-09-27T20:42:26.557Z,46.97
2017-09-27T20:44:55.761Z,64.90
2017-09-27T20:47:25.224Z,47.20
2017-09-27T20:49:53.612Z,54.20
2017-09-27T20:52:22.767Z,59.00
2017-09-27T20:54:51.212Z,61.23
2017-09-27T20:57:20.336Z,53.70
2017-09-27T20:59:48.752Z,62.10
2017-09-27T21:02:17.325Z,50.87
2017-09-27T21:04:46.245Z,56.80
2017-09-27T21:07:14.624Z,52.87
2017-09-27T21:09:43.074Z,55.03
2017-09-27T21:12:11.585Z,49.97
2017-09-27T21:14:39.979Z,60.37
2017-09-27T21:17:08.479Z,52.00
2017-09-27T21:19:36.946Z,45.83
2017-09-27T21:22:07.213Z,57.53
2017-09-27T21:24:35.786Z,59.40
2017-09-27T21:27:04.256Z,60.80
2017-09-27T21:29:32.875Z,63.33
2017-09-27T21:32:01.482Z,58.93
2017-09-27T21:34:30.628Z,59.53
2017-09-27T21:36:59.767Z,52.67
2017-09-27T21:39:28.497Z,66.17
2017-09-27T21:41:57.077Z,53.50
2017-09-27T21:44:25.613Z,56.93
2017-09-27T21:46:54.242Z,63.67
2017-09-27T21:49:22.639Z,61.80
2017-09-27T21:51:51.009Z,66.30
2017-09-27T21:54:20.467Z,61.40
2017-09-27T21:56:48.832Z,55.70
2017-09-27T21:59:17.218Z,65.67
2017-09-27T22:01:45.733Z,63.43
2017-09-27T22:04:14.920Z,58.73
2017-09-27T22:06:44.102Z,57.27
2017-09-27T22:09:12.913Z,58.10
2017-09-27T22:11:43.232Z,60.13
2017-09-27T22:14:12.369Z,65.90
2017-09-27T22:16:42.210Z,52.77
2017-09-27T22:19:10.900Z,63.30
2017-09-27T22:21:39.303Z,61.97
2017-09-27T22:24:07.737Z,51.90
2017-09-27T22:26:37.901Z,62.50
2017-09-27T22:29:06.278Z,60.50
2017-09-27T22:31:34.752Z,62.77
2017-09-27T22:34:03.221Z,74.23
2017-09-27T22:36:32.051Z,63.10
2017-09-27T22:39:01.371Z,57.40
2017-09-27T22:41:29.791Z,65.23
2017-09-27T22:43:58.993Z,66.40
2017-09-27T22:46:27.625Z,80.23
2017-09-27T22:48:55.987Z,72.47
2017-09-27T22:51:24.391Z,59.20
2017-09-27T22:53:52.912Z,64.60
2017-09-27T22:56:21.355Z,63.53
2017-09-27T22:58:49.752Z,64.07
2017-09-27T23:01:18.302Z,56.13
2017-09-27T23:03:46.721Z,60.60
2017-09-27T23:06:15.096Z,55.87
2017-09-27T23:08:43.837Z,62.80
2017-09-27T23:11:12.990Z,61.23
2017-09-27T23:13:41.399Z,64.27
2017-09-27T23:16:11.000Z,62.90
2017-09-27T23:18:39.405Z,58.60
2017-09-27T23:21:07.784Z,71.83
2017-09-27T23:23:36.437Z,70.40
2017-09-27T23:26:04.906Z,68.03
2017-09-27T23:28:33.314Z,67.00
2017-09-27T23:31:03.444Z,60.13
2017-09-27T23:33:32.655Z,63.90
2017-09-27T23:36:02.245Z,61.70
2017-09-27T23:38:31.448Z,60.50
2017-09-27T23:41:00.653Z,59.10
2017-09-27T23:43:29.058Z,64.43
2017-09-27T23:45:58.675Z,67.10
2017-09-27T23:48:27.086Z,69.83
2017-09-27T23:50:56.205Z,67.57
2017-09-27T23:53:24.610Z,62.93
2017-09-27T23:55:53.186Z,65.00
2017-09-27T23:58:21.808Z,94.27
